Time;durP1;ratioP1;P1;durP2;ratioP2;P2;SDS_P1;SDS_P2;PMS_P1;PMS_P2;Temp;Humidity;BMP_temperature;BMP_pressure;BME280_temperature;BME280_humidity;BME280_pressure;Samples;Min_cycle;Max_cycle;Signal;HPM_P1;HPM_P2
2023/08/03 00:00:14;;;;;;;15.93;12.80;;;;;;;26.01;66.54;99398.53;5104773;28;20439;-26
2023/08/03 00:02:39;;;;;;;13.85;12.40;;;;;;;26.12;65.98;99398.91;5104834;28;20349;-24
2023/08/03 00:05:08;;;;;;;14.23;12.73;;;;;;;26.18;65.46;99404.94;5104645;28;20058;-24
2023/08/03 00:07:33;;;;;;;14.75;13.20;;;;;;;26.13;65.14;99402.41;5104931;28;20024;-29
2023/08/03 00:09:59;;;;;;;15.32;13.82;;;;;;;26.23;64.89;99401.97;5104802;28;20028;-25
2023/08/03 00:12:25;;;;;;;18.15;13.55;;;;;;;26.16;65.18;99399.03;5104647;28;20183;-24
2023/08/03 00:14:51;;;;;;;14.00;12.50;;;;;;;26.00;65.38;99396.94;5104976;28;20039;-24
2023/08/03 00:17:17;;;;;;;13.38;11.98;;;;;;;25.96;65.17;99398.75;5104610;28;20035;-24
2023/08/03 00:19:45;;;;;;;15.40;12.35;;;;;;;25.88;65.18;99393.34;5104701;28;20024;-24
2023/08/03 00:22:10;;;;;;;;;;;;;;;25.73;65.38;99403.00;5105085;28;20094;-25
2023/08/03 00:24:36;;;;;;;13.20;11.03;;;;;;;25.46;66.70;99405.16;5104596;28;20678;-24
2023/08/03 00:27:02;;;;;;;12.23;10.88;;;;;;;25.52;66.38;99398.38;5104435;28;20292;-24
2023/08/03 00:29:27;;;;;;;12.77;10.57;;;;;;;25.44;66.90;99399.25;5104296;28;20509;-24
2023/08/03 00:31:55;;;;;;;13.80;11.27;;;;;;;25.37;67.06;99402.47;5104868;28;20527;-24
2023/08/03 00:34:23;;;;;;;13.30;11.05;;;;;;;25.25;67.61;99403.25;5104562;28;20439;-24
2023/08/03 00:36:51;;;;;;;12.30;10.48;;;;;;;25.48;66.81;99402.91;5104268;28;20550;-26
2023/08/03 00:39:19;;;;;;;13.75;11.70;;;;;;;25.34;67.14;99407.84;5104356;28;20382;-25
2023/08/03 00:41:47;;;;;;;;;;;;;;;25.29;67.17;99405.28;5104683;28;20141;-25
2023/08/03 00:44:12;;;;;;;11.82;10.63;;;;;;;25.35;66.87;99403.97;5104601;28;20023;-25
2023/08/03 00:46:38;;;;;;;11.70;10.20;;;;;;;25.29;66.21;99405.28;5104596;28;20469;-25
2023/08/03 00:49:03;;;;;;;12.55;11.23;;;;;;;25.51;64.66;99412.34;5104088;28;20035;-23
2023/08/03 00:51:29;;;;;;;11.50;10.30;;;;;;;25.39;64.67;99410.34;5104333;28;20038;-24
2023/08/03 00:53:55;;;;;;;12.20;10.90;;;;;;;25.02;65.87;99410.13;5104189;28;20035;-24
2023/08/03 00:56:24;;;;;;;12.82;10.57;;;;;;;25.08;65.30;99405.28;5104117;28;20521;-24
2023/08/03 00:58:49;;;;;;;12.65;11.20;;;;;;;25.26;64.49;99407.56;5103884;28;20105;-24
2023/08/03 01:01:14;;;;;;;11.85;10.25;;;;;;;25.38;63.81;99414.22;5103696;28;20051;-24
2023/08/03 01:03:40;;;;;;;13.05;10.38;;;;;;;25.15;64.58;99417.25;5105064;28;20027;-26
2023/08/03 01:06:05;;;;;;;12.80;10.70;;;;;;;24.83;66.36;99416.81;5108252;28;20055;-31
2023/08/03 01:08:31;;;;;;;12.50;10.38;;;;;;;24.63;67.24;99410.19;5108535;28;20027;-24
2023/08/03 01:10:56;;;;;;;12.10;10.60;;;;;;;24.51;69.21;99406.56;5108089;28;20050;-24
2023/08/03 01:13:22;;;;;;;12.98;10.95;;;;;;;24.46;70.16;99411.03;5108225;28;20428;-24
2023/08/03 01:15:48;;;;;;;15.65;11.30;;;;;;;24.41;69.47;99407.69;5108155;28;20393;-24
2023/08/03 01:18:17;;;;;;;12.23;10.77;;;;;;;24.54;69.08;99408.63;5107955;28;20055;-25
2023/08/03 01:20:43;;;;;;;18.20;12.00;;;;;;;24.53;69.53;99407.03;5107810;28;20070;-24
2023/08/03 01:23:10;;;;;;;13.98;12.45;;;;;;;24.13;70.17;99408.13;5108039;28;20084;-24
2023/08/03 01:25:36;;;;;;;15.73;12.20;;;;;;;23.94;71.41;99405.75;5107756;28;20024;-26
2023/08/03 01:28:05;;;;;;;14.80;11.73;;;;;;;24.06;70.77;99411.34;5107687;28;20031;-24
2023/08/03 01:30:36;;;;;;;14.98;11.45;;;;;;;24.17;70.36;99413.72;5107512;28;20032;-24
2023/08/03 01:33:04;;;;;;;14.40;11.63;;;;;;;24.11;71.08;99424.00;5107767;28;20042;-25
2023/08/03 01:35:29;;;;;;;;;;;;;;;24.51;68.95;99418.25;5108577;28;20051;-24
2023/08/03 01:37:54;;;;;;;13.25;11.65;;;;;;;24.39;69.03;99418.91;5107669;28;20725;-24
2023/08/03 01:40:20;;;;;;;14.07;12.25;;;;;;;24.64;68.72;99424.59;5107784;28;20023;-25
2023/08/03 01:42:46;;;;;;;15.55;12.35;;;;;;;24.35;69.55;99428.06;5107533;28;20024;-24
2023/08/03 01:45:11;;;;;;;14.02;11.07;;;;;;;24.13;71.04;99431.84;5107488;28;20100;-25
2023/08/03 01:47:37;;;;;;;14.65;11.75;;;;;;;24.00;72.42;99433.63;5108011;28;20015;-28
2023/08/03 01:50:02;;;;;;;13.93;12.27;;;;;;;24.16;71.63;99437.44;5107594;28;20023;-24
2023/08/03 01:52:28;;;;;;;15.60;12.05;;;;;;;24.67;69.95;99443.03;5107322;28;20042;-23
2023/08/03 01:54:53;;;;;;;14.63;12.93;;;;;;;24.41;71.27;99443.91;5107237;28;20024;-24
2023/08/03 01:57:19;;;;;;;17.05;12.45;;;;;;;24.42;72.41;99442.81;5107105;27;20879;-23
2023/08/03 01:59:44;;;;;;;17.08;13.13;;;;;;;24.36;72.24;99452.28;5107462;27;20020;-24
2023/08/03 02:02:10;;;;;;;17.35;13.75;;;;;;;24.40;72.54;99447.78;5107154;28;20048;-24
2023/08/03 02:04:38;;;;;;;15.40;13.52;;;;;;;24.32;73.13;99456.00;5107423;28;20039;-23
2023/08/03 02:07:15;;;;;;;17.65;14.38;;;;;;;23.77;75.38;99446.66;5107455;28;20040;-24
2023/08/03 02:09:40;;;;;;;16.95;13.85;;;;;;;23.50;78.71;99445.84;5107105;28;20559;-24
2023/08/03 02:12:06;;;;;;;18.83;14.27;;;;;;;23.54;78.01;99448.69;5106929;28;20066;-24
2023/08/03 02:14:32;;;;;;;16.10;14.15;;;;;;;23.58;77.54;99446.94;5107082;28;20086;-24
2023/08/03 02:16:57;;;;;;;16.25;14.02;;;;;;;23.37;77.94;99444.84;5106943;28;20408;-24
2023/08/03 02:19:25;;;;;;;17.98;12.98;;;;;;;23.31;78.58;99456.22;5106824;28;20138;-24
2023/08/03 02:21:51;;;;;;;16.15;13.48;;;;;;;23.22;79.44;99446.13;5106757;27;20526;-24
2023/08/03 02:24:16;;;;;;;12.95;11.63;;;;;;;23.40;79.24;99449.66;5106979;28;20031;-25
2023/08/03 02:26:42;;;;;;;14.43;12.85;;;;;;;23.83;76.15;99448.88;5106618;28;20084;-24
2023/08/03 02:29:07;;;;;;;14.75;12.32;;;;;;;23.55;78.01;99447.59;5107099;28;20027;-24
2023/08/03 02:31:33;;;;;;;16.10;12.00;;;;;;;23.37;77.22;99454.94;5106321;28;20023;-24
2023/08/03 02:34:01;;;;;;;17.30;12.77;;;;;;;23.08;79.13;99453.63;5106542;28;20019;-24
2023/08/03 02:36:26;;;;;;;14.70;12.27;;;;;;;22.98;79.16;99453.91;5106486;28;20446;-24
2023/08/03 02:38:52;;;;;;;15.55;13.18;;;;;;;22.99;81.12;99455.50;5106283;28;20484;-25
2023/08/03 02:41:17;;;;;;;16.30;13.25;;;;;;;23.18;79.54;99461.47;5106359;28;20130;-25
2023/08/03 02:43:43;;;;;;;17.42;13.45;;;;;;;23.46;78.11;99458.47;5106418;28;20027;-25
2023/08/03 02:46:08;;;;;;;16.45;13.68;;;;;;;23.65;77.46;99471.75;5106371;28;20020;-26
2023/08/03 02:48:34;;;;;;;16.73;14.30;;;;;;;24.02;75.39;99466.78;5106247;28;20084;-25
2023/08/03 02:50:59;;;;;;;20.33;15.20;;;;;;;24.12;74.76;99468.38;5106282;28;20084;-25
2023/08/03 02:53:24;;;;;;;20.38;15.20;;;;;;;23.97;75.73;99467.78;5106496;28;20081;-26
2023/08/03 02:55:52;;;;;;;17.17;15.07;;;;;;;24.25;73.87;99465.47;5106219;28;20026;-25
2023/08/03 02:58:18;;;;;;;22.30;15.20;;;;;;;23.96;74.62;99474.31;5106301;28;20102;-24
2023/08/03 03:00:43;;;;;;;24.23;15.85;;;;;;;23.88;74.36;99475.13;5106049;28;20039;-25
2023/08/03 03:03:09;;;;;;;20.50;15.00;;;;;;;23.85;75.36;99470.34;5106188;28;20438;-30
2023/08/03 03:05:34;;;;;;;20.55;15.40;;;;;;;23.79;76.03;99471.63;5106370;28;20160;-25
2023/08/03 03:07:59;;;;;;;19.50;16.63;;;;;;;23.53;77.99;99475.13;5105949;28;20032;-25
2023/08/03 03:10:25;;;;;;;21.38;16.30;;;;;;;23.67;77.21;99475.75;5105503;28;20479;-26
2023/08/03 03:12:50;;;;;;;19.33;15.65;;;;;;;24.13;74.79;99476.25;5105784;28;20446;-25
2023/08/03 03:15:16;;;;;;;25.13;15.93;;;;;;;23.84;76.06;99471.47;5105623;28;20028;-24
2023/08/03 03:17:42;;;;;;;23.05;16.55;;;;;;;23.89;76.02;99481.41;5105902;28;20024;-28
2023/08/03 03:20:08;;;;;;;26.42;15.88;;;;;;;23.63;77.54;99485.69;5105662;28;20034;-25
2023/08/03 03:22:35;;;;;;;24.00;16.23;;;;;;;24.03;75.43;99480.09;5105584;28;20028;-25
2023/08/03 03:25:02;;;;;;;23.50;15.63;;;;;;;23.69;76.77;99480.88;5105547;27;20020;-25
2023/08/03 03:27:28;;;;;;;23.27;15.25;;;;;;;23.53;77.57;99486.00;5105323;28;20031;-25
2023/08/03 03:29:53;;;;;;;24.85;16.90;;;;;;;23.69;76.56;99488.25;5105253;28;20415;-24
2023/08/03 03:32:22;;;;;;;20.48;14.90;;;;;;;23.47;78.11;99482.63;5105533;28;20035;-26
2023/08/03 03:34:47;;;;;;;20.35;14.95;;;;;;;23.39;78.99;99488.06;5105400;28;20027;-25
2023/08/03 03:37:13;;;;;;;17.95;14.35;;;;;;;23.41;79.24;99488.56;5105375;28;20047;-24
2023/08/03 03:39:38;;;;;;;25.52;14.63;;;;;;;23.45;78.00;99492.25;5105459;28;20032;-24
2023/08/03 03:42:04;;;;;;;24.17;14.88;;;;;;;23.37;78.02;99493.81;5105234;28;20028;-25
2023/08/03 03:44:29;;;;;;;20.42;14.25;;;;;;;23.54;76.93;99493.06;5105060;28;20833;-26
2023/08/03 03:46:55;;;;;;;26.08;16.15;;;;;;;23.63;78.21;99496.56;5105207;28;20026;-25
2023/08/03 03:49:20;;;;;;;21.30;14.77;;;;;;;23.95;75.95;99501.91;5105185;28;20423;-25
2023/08/03 03:51:46;;;;;;;18.42;13.98;;;;;;;23.58;77.40;99498.66;5104884;28;20031;-24
2023/08/03 03:54:11;;;;;;;20.85;13.45;;;;;;;23.40;78.61;99509.53;5104707;28;20035;-27
2023/08/03 03:56:39;;;;;;;17.95;13.32;;;;;;;23.40;78.91;99497.84;5105204;28;20023;-25
2023/08/03 03:59:04;;;;;;;;;;;;;;;23.21;80.56;99489.97;5104960;28;20027;-25
2023/08/03 04:01:29;;;;;;;20.53;13.57;;;;;;;23.31;79.00;99499.75;5104216;28;20671;-25
2023/08/03 04:03:55;;;;;;;19.25;14.48;;;;;;;23.34;79.00;99501.84;5104464;28;20269;-25
2023/08/03 04:06:20;;;;;;;18.48;14.90;;;;;;;23.79;77.02;99499.66;5103958;28;20034;-25
2023/08/03 04:08:46;;;;;;;19.80;13.75;;;;;;;24.15;75.17;99505.84;5103926;28;20023;-25
2023/08/03 04:11:11;;;;;;;25.00;14.10;;;;;;;24.34;73.35;99503.59;5103850;28;20031;-30
2023/08/03 04:13:37;;;;;;;24.35;14.25;;;;;;;24.01;74.62;99506.84;5104303;28;20026;-24
2023/08/03 04:16:02;;;;;;;17.80;14.35;;;;;;;24.21;74.98;99510.00;5103611;28;20147;-23
2023/08/03 04:18:27;;;;;;;22.52;16.00;;;;;;;24.42;73.59;99504.69;5104020;28;20016;-23
2023/08/03 04:20:53;;;;;;;23.27;15.57;;;;;;;24.21;74.39;99512.75;5103594;28;20063;-24
2023/08/03 04:23:19;;;;;;;22.42;15.40;;;;;;;24.25;74.66;99505.50;5103883;28;20102;-24
2023/08/03 04:25:44;;;;;;;31.00;20.85;;;;;;;24.46;72.69;99509.16;5104009;28;20034;-24
2023/08/03 04:28:10;;;;;;;29.27;20.95;;;;;;;24.44;73.20;99522.31;5104022;28;20432;-23
2023/08/03 04:30:37;;;;;;;37.25;22.83;;;;;;;24.62;72.31;99520.38;5103725;28;20038;-24
2023/08/03 04:33:03;;;;;;;42.10;25.95;;;;;;;24.64;72.97;99528.19;5103627;28;20038;-23
2023/08/03 04:35:28;;;;;;;38.67;26.52;;;;;;;24.34;73.75;99514.50;5103972;28;20027;-26
2023/08/03 04:37:54;;;;;;;26.67;19.17;;;;;;;24.72;71.02;99521.91;5102853;28;20024;-27
2023/08/03 04:40:19;;;;;;;21.42;17.00;;;;;;;24.81;70.63;99533.59;5103173;28;20020;-24
2023/08/03 04:42:44;;;;;;;25.08;17.73;;;;;;;25.01;70.85;99536.75;5103539;28;20032;-24
2023/08/03 04:45:10;;;;;;;24.75;17.60;;;;;;;25.04;70.86;99534.13;5104122;28;20755;-24
2023/08/03 04:47:38;;;;;;;27.33;17.83;;;;;;;25.11;70.47;99536.38;5103222;28;20083;-24
2023/08/03 04:50:03;;;;;;;;;;;;;;;25.20;70.19;99534.38;5103882;28;20096;-24
2023/08/03 04:52:28;;;;;;;16.42;13.77;;;;;;;25.35;68.18;99538.50;5103751;28;19907;-22
2023/08/03 04:54:54;;;;;;;21.65;14.65;;;;;;;25.42;67.85;99535.25;5103410;28;20020;-24
2023/08/03 04:57:22;;;;;;;17.75;14.00;;;;;;;25.51;67.92;99533.25;5103434;28;20115;-25
2023/08/03 04:59:47;;;;;;;16.88;13.77;;;;;;;25.62;67.18;99533.66;5103575;28;20035;-23
2023/08/03 05:02:15;;;;;;;16.95;13.57;;;;;;;25.67;67.37;99533.47;5062630;28;1175369;-25
2023/08/03 05:04:43;;;;;;;14.68;12.38;;;;;;;25.71;66.63;99534.41;5104462;28;20076;-23
2023/08/03 05:07:08;;;;;;;;;;;;;;;26.00;65.04;99541.72;5104733;28;20027;-24
2023/08/03 05:09:33;;;;;;;13.67;12.00;;;;;;;25.87;66.45;99542.78;5104125;28;19920;-26
2023/08/03 05:11:59;;;;;;;13.35;11.27;;;;;;;26.04;65.08;99539.91;5104135;28;21004;-24
2023/08/03 05:14:24;;;;;;;14.85;12.00;;;;;;;26.28;62.20;99540.38;5104130;28;20028;-25
2023/08/03 05:16:49;;;;;;;14.23;12.43;;;;;;;26.59;60.26;99556.31;5104397;28;20047;-24
2023/08/03 05:19:15;;;;;;;15.10;11.75;;;;;;;26.65;59.70;99557.69;5104038;28;20107;-24
2023/08/03 05:21:40;;;;;;;13.93;12.43;;;;;;;26.55;60.95;99552.63;5104172;28;20054;-24
2023/08/03 05:24:08;;;;;;;13.80;12.05;;;;;;;26.68;60.04;99561.66;5104215;28;20019;-23
2023/08/03 05:26:33;;;;;;;;;;;;;;;26.88;59.44;99558.06;5104524;28;20167;-25
2023/08/03 05:28:59;;;;;;;17.92;12.93;;;;;;;26.84;59.39;99565.34;5104220;28;20416;-24
2023/08/03 05:31:24;;;;;;;17.08;13.70;;;;;;;26.96;57.92;99568.09;5103836;28;20027;-25
2023/08/03 05:33:50;;;;;;;15.68;13.40;;;;;;;27.04;57.78;99574.59;5104077;28;20027;-25
2023/08/03 05:36:17;;;;;;;13.35;11.23;;;;;;;27.31;56.50;99580.56;5103959;28;20027;-25
2023/08/03 05:38:45;;;;;;;;;;;;;;;27.44;56.69;99582.13;5104571;28;20123;-25
2023/08/03 05:41:20;;;;;;;14.80;12.30;;;;;;;27.51;58.11;99581.56;5103893;28;20047;-25
2023/08/03 05:43:46;;;;;;;15.55;12.15;;;;;;;27.66;58.25;99583.59;5103495;28;20028;-27
2023/08/03 05:46:13;;;;;;;12.77;11.45;;;;;;;27.64;57.39;99575.75;5104294;28;20027;-25
2023/08/03 05:48:39;;;;;;;14.93;11.27;;;;;;;27.98;56.37;99583.78;5103972;28;20604;-25
2023/08/03 05:51:04;;;;;;;13.35;11.45;;;;;;;28.02;56.38;99579.19;5106309;28;20261;-24
2023/08/03 05:53:30;;;;;;;12.38;10.20;;;;;;;28.24;55.58;99580.59;5107529;28;20024;-28
2023/08/03 05:55:56;;;;;;;11.63;10.18;;;;;;;28.27;54.97;99579.09;5107479;28;20027;-25
2023/08/03 05:58:22;;;;;;;13.70;11.10;;;;;;;28.43;54.27;99582.66;5107331;27;20035;-25
2023/08/03 06:00:49;;;;;;;13.70;10.77;;;;;;;28.49;55.25;99577.72;5107322;28;20125;-24
2023/08/03 06:03:17;;;;;;;12.57;9.90;;;;;;;28.59;52.70;99569.03;5107274;28;20038;-30
2023/08/03 06:05:44;;;;;;;14.43;9.52;;;;;;;29.11;53.71;99584.44;5107387;28;20569;-24
2023/08/03 06:08:15;;;;;;;11.95;8.75;;;;;;;29.17;52.49;99576.75;5106973;28;20505;-24
2023/08/03 06:10:48;;;;;;;10.95;9.40;;;;;;;29.11;53.40;99572.69;5107423;28;20038;-24
2023/08/03 06:13:17;;;;;;;11.98;9.15;;;;;;;29.09;52.76;99562.00;5105740;28;20118;-25
2023/08/03 06:15:45;;;;;;;12.00;9.73;;;;;;;29.13;52.60;99576.66;5107189;28;20031;-26
2023/08/03 06:18:15;;;;;;;10.50;9.05;;;;;;;29.25;50.16;99581.25;5107226;28;20042;-25
2023/08/03 06:20:49;;;;;;;12.45;8.95;;;;;;;29.29;51.59;99573.88;5106876;28;20020;-25
2023/08/03 06:23:23;;;;;;;10.70;8.38;;;;;;;29.39;51.58;99578.84;5106996;27;20046;-27
2023/08/03 06:25:51;;;;;;;11.30;8.38;;;;;;;29.69;50.18;99574.75;5107133;27;20027;-25
2023/08/03 06:28:18;;;;;;;11.00;8.00;;;;;;;29.31;50.83;99562.56;5106619;28;20043;-25
2023/08/03 06:30:47;;;;;;;10.00;7.93;;;;;;;29.52;49.75;99576.75;5106688;27;20028;-26
2023/08/03 06:33:14;;;;;;;11.77;7.72;;;;;;;29.67;49.78;99588.06;5106681;27;20118;-26
2023/08/03 06:35:41;;;;;;;;;;;;;;;29.82;50.03;99584.50;5107171;28;20031;-24
2023/08/03 06:38:10;;;;;;;10.00;8.23;;;;;;;30.07;49.52;99579.53;5106686;28;19908;-24
2023/08/03 06:40:36;;;;;;;8.90;7.78;;;;;;;30.16;49.02;99582.03;5106427;28;20462;-25
2023/08/03 06:43:05;;;;;;;9.05;7.55;;;;;;;30.67;48.75;99579.13;5106311;28;20488;-25
2023/08/03 06:45:33;;;;;;;9.77;7.57;;;;;;;30.41;46.90;99577.84;5106375;28;20049;-25
2023/08/03 06:48:00;;;;;;;9.68;7.65;;;;;;;30.37;46.34;99568.75;5106673;28;20020;-25
2023/08/03 06:50:29;;;;;;;11.63;8.07;;;;;;;30.41;47.95;99566.84;5106008;28;20492;-24
2023/08/03 06:52:55;;;;;;;9.60;7.63;;;;;;;30.18;48.15;99568.72;5106430;28;20035;-24
2023/08/03 06:55:20;;;;;;;10.30;8.38;;;;;;;30.59;48.23;99558.13;5106763;28;20027;-24
2023/08/03 06:57:46;;;;;;;10.38;8.10;;;;;;;30.70;47.42;99553.59;5106276;28;20404;-29
2023/08/03 07:00:12;;;;;;;10.48;7.85;;;;;;;30.71;46.24;99552.44;5106390;28;20118;-26
2023/08/03 07:02:37;;;;;;;10.52;9.05;;;;;;;30.70;46.83;99556.34;5105161;28;20404;-25
2023/08/03 07:05:03;;;;;;;9.40;8.40;;;;;;;30.95;46.90;99554.03;5106468;28;20027;-25
2023/08/03 07:07:30;;;;;;;11.52;7.65;;;;;;;31.15;45.75;99556.72;5105885;28;20046;-24
2023/08/03 07:09:55;;;;;;;12.47;8.93;;;;;;;31.29;46.41;99554.16;5106019;28;20071;-25
2023/08/03 07:12:20;;;;;;;11.73;8.70;;;;;;;31.22;45.20;99554.03;5105460;28;20122;-25
2023/08/03 07:14:46;;;;;;;11.05;8.10;;;;;;;31.41;44.42;99545.69;5105752;28;20027;-27
2023/08/03 07:17:12;;;;;;;10.35;8.43;;;;;;;31.42;45.03;99550.00;5105595;28;20031;-24
2023/08/03 07:19:37;;;;;;;10.43;8.75;;;;;;;31.83;45.99;99546.63;5105813;28;20136;-25
2023/08/03 07:22:02;;;;;;;11.32;8.38;;;;;;;31.44;45.59;99555.97;5105427;28;20045;-25
2023/08/03 07:24:33;;;;;;;10.32;8.43;;;;;;;31.50;45.56;99547.41;5105630;28;20868;-26
2023/08/03 07:27:03;;;;;;;13.40;8.40;;;;;;;31.90;44.66;99555.00;5105369;28;20039;-24
2023/08/03 07:29:29;;;;;;;10.70;8.88;;;;;;;32.18;43.91;99565.59;5105021;28;20110;-24
2023/08/03 07:31:56;;;;;;;12.48;10.38;;;;;;;31.98;43.70;99562.19;5105636;28;20106;-27
2023/08/03 07:34:21;;;;;;;14.40;12.50;;;;;;;32.18;44.03;99553.75;5105427;28;20032;-25
2023/08/03 07:36:51;;;;;;;15.23;11.63;;;;;;;32.32;44.99;99553.91;5104953;28;20112;-26
2023/08/03 07:39:16;;;;;;;13.30;11.63;;;;;;;32.24;43.46;99563.28;5105442;28;20120;-29
2023/08/03 07:41:42;;;;;;;12.77;10.25;;;;;;;32.37;42.62;99559.09;5105296;28;20958;-25
2023/08/03 07:44:12;;;;;;;10.30;8.70;;;;;;;32.30;42.18;99564.53;5105214;28;20027;-25
2023/08/03 07:46:40;;;;;;;10.95;9.00;;;;;;;32.37;42.46;99567.38;5104933;28;20027;-24
2023/08/03 07:49:08;;;;;;;10.15;8.68;;;;;;;32.56;43.89;99568.38;5105187;28;20019;-23
2023/08/03 07:51:33;;;;;;;10.88;7.55;;;;;;;32.87;43.87;99563.53;5104835;28;20467;-23
2023/08/03 07:54:02;;;;;;;9.85;7.63;;;;;;;32.76;42.51;99566.19;5105108;28;20120;-23
2023/08/03 07:56:27;;;;;;;11.10;8.15;;;;;;;32.62;41.77;99566.84;5104788;28;20034;-24
2023/08/03 07:58:53;;;;;;;9.65;7.65;;;;;;;33.08;43.20;99554.59;5104556;28;20088;-24
2023/08/03 08:01:19;;;;;;;12.30;8.45;;;;;;;32.97;42.64;99565.56;5104527;28;20055;-23
2023/08/03 08:03:45;;;;;;;9.87;8.73;;;;;;;33.05;41.58;99556.16;5105535;28;20020;-25
2023/08/03 08:06:17;;;;;;;11.68;8.23;;;;;;;33.04;42.04;99560.13;5104722;28;20405;-23
2023/08/03 08:08:44;;;;;;;10.73;7.95;;;;;;;33.17;41.34;99552.34;5105348;28;20111;-23
2023/08/03 08:11:12;;;;;;;12.98;8.57;;;;;;;33.13;44.41;99546.00;5104510;28;20031;-26
2023/08/03 08:13:37;;;;;;;9.70;8.38;;;;;;;33.36;40.96;99554.03;5104507;28;20602;-24
2023/08/03 08:16:06;;;;;;;9.55;8.40;;;;;;;33.03;41.82;99555.75;5105056;28;20027;-23
2023/08/03 08:18:35;;;;;;;9.10;8.05;;;;;;;33.30;41.27;99555.56;5104494;28;20123;-25
2023/08/03 08:21:03;;;;;;;12.55;9.48;;;;;;;33.41;40.85;99551.69;5104699;28;20514;-24
2023/08/03 08:23:29;;;;;;;10.07;8.77;;;;;;;33.73;41.43;99544.75;5104504;28;20019;-25
2023/08/03 08:25:55;;;;;;;10.52;8.50;;;;;;;33.77;41.79;99540.03;5104594;28;20197;-24
2023/08/03 08:28:21;;;;;;;12.35;8.98;;;;;;;33.95;41.01;99554.72;5104693;28;20023;-23
2023/08/03 08:30:47;;;;;;;11.70;8.80;;;;;;;33.86;41.03;99548.78;5104587;28;20077;-29
2023/08/03 08:33:17;;;;;;;9.70;8.80;;;;;;;33.98;39.72;99553.16;5104597;28;20476;-25
2023/08/03 08:35:43;;;;;;;10.93;9.27;;;;;;;33.85;41.43;99536.13;5104925;28;20030;-24
2023/08/03 08:38:12;;;;;;;12.02;8.68;;;;;;;34.35;41.53;99536.28;5104152;28;20107;-26
2023/08/03 08:40:39;;;;;;;11.02;8.57;;;;;;;34.58;38.08;99540.66;5104430;28;20104;-24
2023/08/03 08:43:05;;;;;;;10.43;9.25;;;;;;;34.40;40.31;99538.66;5104184;28;20040;-24
2023/08/03 08:45:40;;;;;;;11.57;8.90;;;;;;;34.41;39.44;99539.47;5104486;28;20058;-23
2023/08/03 08:48:05;;;;;;;9.65;8.27;;;;;;;34.20;39.75;99529.13;5104879;28;20051;-24
2023/08/03 08:50:32;;;;;;;12.63;8.32;;;;;;;34.28;40.60;99529.94;5104264;28;20441;-24
2023/08/03 08:52:58;;;;;;;11.85;8.82;;;;;;;34.73;39.81;99533.16;5104350;28;20023;-24
2023/08/03 08:55:26;;;;;;;10.57;9.10;;;;;;;34.56;39.72;99518.91;5103986;28;20440;-25
2023/08/03 08:57:52;;;;;;;14.25;9.60;;;;;;;34.47;40.22;99537.06;5104524;28;20485;-25
2023/08/03 09:00:19;;;;;;;12.45;9.27;;;;;;;34.75;39.77;99528.81;5103881;28;20043;-25
2023/08/03 09:02:44;;;;;;;10.13;9.13;;;;;;;34.65;39.12;99535.13;5104598;28;20023;-24
2023/08/03 09:05:20;;;;;;;10.27;9.07;;;;;;;34.88;38.86;99531.19;5104190;28;20424;-25
2023/08/03 09:07:59;;;;;;;10.38;9.32;;;;;;;35.30;39.15;99527.56;5104264;28;20031;-24
2023/08/03 09:10:24;;;;;;;10.50;8.98;;;;;;;35.07;38.25;99525.22;5104410;28;20110;-24
2023/08/03 09:12:50;;;;;;;12.20;9.35;;;;;;;34.88;38.18;99517.31;5104034;28;20032;-25
2023/08/03 09:15:15;;;;;;;11.63;8.88;;;;;;;35.17;38.09;99518.91;5104077;28;20020;-24
2023/08/03 09:17:42;;;;;;;9.82;8.82;;;;;;;35.05;37.69;99527.59;5104390;28;20059;-25
2023/08/03 09:20:23;;;;;;;11.32;9.30;;;;;;;35.35;36.94;99516.09;5103999;28;20031;-24
2023/08/03 09:22:51;;;;;;;10.52;8.85;;;;;;;35.51;37.81;99510.09;5104533;28;20493;-25
2023/08/03 09:25:16;;;;;;;10.38;8.82;;;;;;;35.64;36.59;99518.75;5105518;28;20019;-25
2023/08/03 09:27:50;;;;;;;13.98;9.38;;;;;;;35.76;35.85;99510.03;5108076;28;20084;-25
2023/08/03 09:30:15;;;;;;;9.95;8.95;;;;;;;36.07;36.40;99515.00;5108226;28;20039;-26
2023/08/03 09:32:42;;;;;;;13.27;9.50;;;;;;;35.81;35.43;99511.56;5107992;28;20020;-25
2023/08/03 09:35:21;;;;;;;9.40;8.40;;;;;;;35.94;36.72;99509.94;5108110;28;20023;-27
2023/08/03 09:37:47;;;;;;;10.52;9.10;;;;;;;36.00;36.88;99513.88;5107721;28;20024;-29
2023/08/03 09:40:13;;;;;;;10.23;8.80;;;;;;;36.28;35.46;99501.00;5107516;28;20416;-24
2023/08/03 09:42:40;;;;;;;10.63;9.48;;;;;;;36.47;35.96;99499.66;5107657;28;20508;-26
2023/08/03 09:45:07;;;;;;;10.35;8.80;;;;;;;36.31;37.28;99500.22;5107723;28;20024;-24
2023/08/03 09:47:36;;;;;;;9.82;8.90;;;;;;;36.29;36.38;99491.50;5107828;28;20031;-27
2023/08/03 09:50:03;;;;;;;9.77;8.73;;;;;;;36.19;36.71;99492.38;5107526;27;20035;-25
2023/08/03 09:52:29;;;;;;;;;;;;;;;36.32;36.39;99492.66;5107750;28;20020;-25
2023/08/03 09:55:26;;;;;;;12.43;9.25;;;;;;;36.49;35.42;99493.72;5107669;28;19915;-25
2023/08/03 09:58:16;;;;;;;11.80;9.73;;;;;;;36.86;34.84;99495.00;5106432;28;20130;-26
2023/08/03 10:00:45;;;;;;;10.15;9.15;;;;;;;36.90;34.25;99498.53;5107481;28;20055;-24
2023/08/03 10:03:18;;;;;;;10.93;9.40;;;;;;;36.86;34.92;99489.44;5107241;28;20483;-27
2023/08/03 10:05:51;;;;;;;11.00;9.13;;;;;;;36.91;34.59;99487.00;5107644;28;20080;-26
2023/08/03 10:08:56;;;;;;;10.30;9.20;;;;;;;36.81;35.09;99482.34;5107398;28;20038;-29
2023/08/03 10:11:27;;;;;;;10.85;8.98;;;;;;;37.07;34.54;99477.34;5097564;28;20504;-25
2023/08/03 10:13:56;;;;;;;11.55;9.02;;;;;;;37.37;33.76;99473.81;5107296;28;20066;-25
2023/08/03 10:16:24;;;;;;;9.88;8.80;;;;;;;37.51;33.29;99473.63;5106567;28;20073;-25
2023/08/03 10:18:50;;;;;;;9.82;8.85;;;;;;;37.75;33.10;99463.41;5106822;28;20143;-25
2023/08/03 10:21:18;;;;;;;9.48;8.57;;;;;;;37.37;33.06;99457.94;5107074;28;20040;-25
2023/08/03 10:24:12;;;;;;;10.57;9.52;;;;;;;37.54;34.16;99470.03;5107026;28;20023;-25
2023/08/03 10:26:37;;;;;;;11.57;8.95;;;;;;;37.84;33.87;99464.91;5106745;28;20089;-25
2023/08/03 10:29:06;;;;;;;10.13;8.75;;;;;;;38.28;33.83;99452.72;5106590;28;20023;-25
2023/08/03 10:31:32;;;;;;;10.20;9.05;;;;;;;38.12;33.03;99452.59;5106501;28;20026;-24
2023/08/03 10:33:57;;;;;;;9.30;8.15;;;;;;;38.21;31.47;99450.06;5107013;28;20045;-25
2023/08/03 10:36:26;;;;;;;10.00;8.87;;;;;;;38.13;33.00;99452.16;5106419;28;20035;-25
2023/08/03 10:38:52;;;;;;;10.20;9.20;;;;;;;38.26;31.51;99455.13;5106246;28;20040;-25
2023/08/03 10:41:26;;;;;;;12.80;9.15;;;;;;;38.17;32.62;99441.75;5106216;28;20023;-25
2023/08/03 10:44:12;;;;;;;10.68;8.73;;;;;;;38.30;30.45;99450.28;5106637;28;20698;-24
2023/08/03 10:46:40;;;;;;;9.35;7.97;;;;;;;38.02;31.29;99447.94;5106323;28;20527;-25
2023/08/03 10:49:17;;;;;;;12.20;8.70;;;;;;;38.10;30.76;99447.44;5106608;28;20035;-24
2023/08/03 10:51:54;;;;;;;9.07;8.00;;;;;;;38.41;29.37;99446.53;5106477;28;20168;-25
2023/08/03 10:54:21;;;;;;;9.18;8.27;;;;;;;38.59;29.76;99444.25;5106451;28;20484;-24
2023/08/03 10:57:04;;;;;;;9.60;8.38;;;;;;;39.05;28.59;99441.84;5106142;28;20420;-27
2023/08/03 10:59:43;;;;;;;9.10;8.20;;;;;;;38.71;30.94;99438.06;5105939;28;20027;-31
2023/08/03 11:02:09;;;;;;;9.52;8.50;;;;;;;38.92;28.96;99438.88;5106053;28;20059;-25
2023/08/03 11:04:52;;;;;;;10.07;8.57;;;;;;;38.57;29.01;99438.34;5106491;28;20023;-25
2023/08/03 11:07:38;;;;;;;9.93;8.45;;;;;;;38.54;29.92;99428.84;5106332;27;20039;-25
2023/08/03 11:10:06;;;;;;;9.13;8.23;;;;;;;38.67;28.32;99431.78;5106018;28;20515;-25
2023/08/03 11:12:33;;;;;;;10.48;8.57;;;;;;;38.84;28.51;99426.28;5105988;28;20628;-24
2023/08/03 11:15:03;;;;;;;9.43;8.33;;;;;;;38.75;27.92;99424.84;5105421;27;20070;-25
2023/08/03 11:17:30;;;;;;;9.65;8.65;;;;;;;39.25;29.16;99411.94;5105860;28;20265;-24
2023/08/03 11:19:57;;;;;;;9.35;8.45;;;;;;;39.43;29.44;99413.59;5105839;27;20088;-26
2023/08/03 11:22:23;;;;;;;;;;;;;;;39.18;27.69;99414.91;5106221;28;20480;-24
2023/08/03 11:24:49;;;;;;;;;;;;;;;39.48;27.83;99408.31;5105602;28;19969;-25